Time;durP1;ratioP1;P1;durP2;ratioP2;P2;SDS_P1;SDS_P2;PMS_P1;PMS_P2;Temp;Humidity;BMP_temperature;BMP_pressure;BME280_temperature;BME280_humidity;BME280_pressure;Samples;Min_cycle;Max_cycle;Signal;HPM_P1;HPM_P2
2023/07/24 00:01:20;;;;;;;12.93;6.68;;;18.70;99.90;;;;;;4939350;29;20703;-86
2023/07/24 00:03:46;;;;;;;14.10;6.70;;;18.70;99.90;;;;;;4936720;29;20195;-86
2023/07/24 00:06:12;;;;;;;13.25;7.18;;;18.60;99.90;;;;;;4936504;29;20199;-86
2023/07/24 00:08:38;;;;;;;13.40;7.40;;;18.60;99.90;;;;;;4919963;29;20198;-86
2023/07/24 00:11:07;;;;;;;9.60;6.60;;;18.60;99.90;;;;;;4935860;29;20199;-86
2023/07/24 00:13:33;;;;;;;16.20;7.03;;;18.60;99.90;;;;;;4934967;29;20230;-86
2023/07/24 00:15:59;;;;;;;13.10;6.70;;;18.60;99.90;;;;;;4919881;29;20221;-86
2023/07/24 00:18:25;;;;;;;10.90;6.25;;;18.60;99.90;;;;;;4936380;29;20636;-86
2023/07/24 00:20:51;;;;;;;12.85;7.03;;;18.60;99.90;;;;;;4933891;29;20195;-86
2023/07/24 00:23:16;;;;;;;11.20;6.80;;;18.50;99.90;;;;;;4936420;29;20210;-86
2023/07/24 00:25:42;;;;;;;13.45;6.57;;;18.60;99.90;;;;;;4920694;29;20555;-86
2023/07/24 00:28:08;;;;;;;12.18;6.28;;;18.50;99.90;;;;;;4920287;29;20223;-85
2023/07/24 00:30:34;;;;;;;12.15;6.93;;;18.50;99.90;;;;;;4912441;29;20186;-86
2023/07/24 00:33:00;;;;;;;11.90;6.60;;;18.50;99.90;;;;;;4918324;29;20262;-86
2023/07/24 00:35:26;;;;;;;14.18;7.20;;;18.50;99.90;;;;;;4900989;29;20191;-85
2023/07/24 00:37:52;;;;;;;12.60;7.10;;;18.50;99.90;;;;;;4919568;29;20254;-86
2023/07/24 00:40:18;;;;;;;10.90;6.20;;;18.50;99.90;;;;;;4929244;29;20263;-86
2023/07/24 00:42:49;;;;;;;15.18;7.40;;;18.50;99.90;;;;;;4938560;29;20223;-86
2023/07/24 00:45:16;;;;;;;14.30;6.95;;;18.50;99.90;;;;;;4927665;29;20202;-86
2023/07/24 00:47:43;;;;;;;12.18;7.10;;;18.50;99.90;;;;;;4935462;29;20194;-85
2023/07/24 00:50:10;;;;;;;14.70;7.00;;;18.40;99.90;;;;;;4920039;29;20274;-85
2023/07/24 00:52:37;;;;;;;15.30;7.18;;;18.40;99.90;;;;;;4935268;29;20222;-85
2023/07/24 00:55:04;;;;;;;10.75;7.00;;;18.40;99.90;;;;;;4933465;29;20607;-85
2023/07/24 00:57:30;;;;;;;11.13;7.05;;;18.40;99.90;;;;;;4935250;29;20180;-86
2023/07/24 00:59:57;;;;;;;16.17;7.60;;;18.40;99.90;;;;;;4935636;29;20183;-86
2023/07/24 01:02:23;;;;;;;15.43;7.90;;;18.40;99.90;;;;;;4920152;29;20197;-87
2023/07/24 01:04:49;;;;;;;13.25;8.15;;;18.30;99.90;;;;;;4919526;29;20191;-85
2023/07/24 01:07:16;;;;;;;14.23;7.80;;;18.40;99.90;;;;;;4938752;29;20338;-86
2023/07/24 01:09:42;;;;;;;14.32;7.72;;;18.30;99.90;;;;;;4935130;29;20246;-86
2023/07/24 01:12:18;;;;;;;15.50;8.23;;;18.30;99.90;;;;;;4935391;29;20218;-85
2023/07/24 01:14:52;;;;;;;16.65;8.20;;;18.30;99.90;;;;;;4939163;29;20190;-85
2023/07/24 01:17:23;;;;;;;11.38;7.38;;;18.30;99.90;;;;;;4944019;29;20190;-86
2023/07/24 01:19:52;;;;;;;20.67;8.23;;;18.20;99.90;;;;;;4931786;29;20200;-86
2023/07/24 01:22:27;;;;;;;13.27;7.68;;;18.20;99.90;;;;;;4936301;29;20206;-85
2023/07/24 01:25:15;;;;;;;15.02;8.05;;;18.20;99.90;;;;;;4919085;29;20278;-86
2023/07/24 01:27:45;;;;;;;12.82;8.05;;;18.20;99.90;;;;;;4930287;29;20215;-85
2023/07/24 01:30:12;;;;;;;14.90;7.90;;;18.10;99.90;;;;;;4950893;29;20664;-86
2023/07/24 01:32:39;;;;;;;19.05;8.60;;;18.20;99.90;;;;;;4934212;29;20582;-86
2023/07/24 01:35:05;;;;;;;16.70;8.75;;;18.10;99.90;;;;;;4959482;28;21118;-85
2023/07/24 01:37:33;;;;;;;18.10;8.73;;;18.10;99.90;;;;;;4912840;29;20250;-86
2023/07/24 01:40:00;;;;;;;16.98;9.23;;;18.10;99.90;;;;;;4939380;29;20210;-86
2023/07/24 01:42:26;;;;;;;15.68;9.15;;;18.10;99.90;;;;;;4946737;28;20189;-85
2023/07/24 01:44:54;;;;;;;19.13;9.88;;;18.10;99.90;;;;;;4938287;29;20195;-85
2023/07/24 01:47:20;;;;;;;14.13;9.85;;;18.00;99.90;;;;;;4937979;29;20609;-87
2023/07/24 01:49:46;;;;;;;19.17;10.38;;;18.00;99.90;;;;;;4925154;29;20283;-85
2023/07/24 01:52:11;;;;;;;16.10;9.95;;;18.00;99.90;;;;;;4923642;29;20413;-85
2023/07/24 01:54:37;;;;;;;18.02;10.60;;;18.00;99.90;;;;;;4941743;29;20183;-84
2023/07/24 01:57:04;;;;;;;15.60;10.70;;;18.00;99.90;;;;;;4939417;28;20179;-85
2023/07/24 01:59:29;;;;;;;19.17;11.63;;;18.00;99.90;;;;;;4947017;29;20297;-87
2023/07/24 02:01:55;;;;;;;18.13;11.55;;;18.00;99.90;;;;;;4943803;29;20183;-85
2023/07/24 02:04:22;;;;;;;16.27;11.80;;;17.90;99.90;;;;;;4941167;29;20657;-85
2023/07/24 02:06:49;;;;;;;16.40;12.02;;;17.90;99.90;;;;;;4921269;29;20193;-85
2023/07/24 02:09:15;;;;;;;16.13;11.60;;;18.00;99.90;;;;;;4916458;29;20529;-85
2023/07/24 02:11:43;;;;;;;21.65;12.20;;;18.00;99.90;;;;;;4923325;29;20180;-85
2023/07/24 02:14:09;;;;;;;20.27;12.77;;;17.90;99.90;;;;;;4903363;29;20656;-87
2023/07/24 02:16:35;;;;;;;17.67;12.05;;;18.00;99.90;;;;;;4918923;29;20193;-84
2023/07/24 02:19:01;;;;;;;20.77;12.63;;;18.00;99.90;;;;;;4939581;29;20214;-85
2023/07/24 02:21:27;;;;;;;18.05;12.50;;;18.00;99.90;;;;;;4925667;29;20206;-85
2023/07/24 02:23:55;;;;;;;21.63;13.23;;;18.00;99.90;;;;;;4935704;29;20183;-85
2023/07/24 02:26:21;;;;;;;17.92;13.18;;;18.00;99.90;;;;;;4933870;29;20254;-84
2023/07/24 02:28:47;;;;;;;17.85;12.73;;;18.00;99.90;;;;;;4933185;29;20192;-87
2023/07/24 02:31:13;;;;;;;17.80;12.48;;;18.00;99.90;;;;;;4942448;29;20249;-87
2023/07/24 02:33:39;;;;;;;19.60;12.77;;;18.00;99.90;;;;;;4919066;29;20203;-85
2023/07/24 02:36:06;;;;;;;17.15;12.60;;;18.00;99.90;;;;;;4918375;29;20207;-85
2023/07/24 02:38:33;;;;;;;19.60;13.45;;;18.00;99.90;;;;;;4943506;29;20218;-85
2023/07/24 02:40:59;;;;;;;18.67;13.25;;;18.00;99.90;;;;;;4936673;29;20187;-85
2023/07/24 02:43:25;;;;;;;18.30;12.85;;;18.00;99.90;;;;;;4933088;29;20203;-85
2023/07/24 02:45:51;;;;;;;23.80;14.13;;;18.00;99.90;;;;;;4913891;29;20188;-85
2023/07/24 02:48:17;;;;;;;18.67;12.52;;;18.00;99.90;;;;;;4920520;29;20781;-86
2023/07/24 02:50:43;;;;;;;19.77;13.20;;;18.00;99.90;;;;;;4920376;29;20553;-86
2023/07/24 02:53:09;;;;;;;19.00;13.88;;;18.00;99.90;;;;;;4934290;29;20215;-85
2023/07/24 02:55:34;;;;;;;19.70;13.85;;;18.00;99.90;;;;;;4918405;29;20187;-85
2023/07/24 02:58:00;;;;;;;17.98;13.20;;;18.00;99.90;;;;;;4940113;29;20209;-84
2023/07/24 03:00:26;;;;;;;21.92;13.13;;;18.00;99.90;;;;;;4938743;29;20183;-85
2023/07/24 03:02:53;;;;;;;17.17;12.57;;;18.00;99.90;;;;;;4914798;29;20211;-86
2023/07/24 03:05:18;;;;;;;24.10;13.25;;;18.00;99.90;;;;;;4915217;29;20583;-85
2023/07/24 03:07:44;;;;;;;19.58;12.73;;;18.00;99.90;;;;;;4900433;29;20187;-83
2023/07/24 03:10:10;;;;;;;17.35;13.23;;;18.00;99.90;;;;;;4937444;29;20538;-84
2023/07/24 03:12:36;;;;;;;16.77;11.98;;;18.00;99.90;;;;;;4918218;29;20238;-83
2023/07/24 03:15:02;;;;;;;17.98;12.10;;;18.00;99.90;;;;;;4917100;29;20183;-84
2023/07/24 03:17:28;;;;;;;19.25;12.63;;;18.00;99.90;;;;;;4933620;29;20191;-83
2023/07/24 03:19:55;;;;;;;21.73;11.73;;;18.00;99.90;;;;;;4899737;29;20203;-84
2023/07/24 03:22:21;;;;;;;20.13;11.98;;;18.00;99.90;;;;;;4932855;29;20187;-83
2023/07/24 03:24:46;;;;;;;16.63;11.60;;;18.00;99.90;;;;;;4896219;29;20258;-83
2023/07/24 03:27:12;;;;;;;19.33;10.25;;;18.00;99.90;;;;;;4932180;29;20259;-84
2023/07/24 03:29:40;;;;;;;15.07;10.48;;;18.00;99.90;;;;;;4945629;29;22128;-84
2023/07/24 03:32:07;;;;;;;21.02;11.20;;;18.00;99.90;;;;;;4934592;29;20203;-84
2023/07/24 03:34:32;;;;;;;16.35;10.80;;;18.00;99.90;;;;;;4913419;29;20184;-82
2023/07/24 03:36:58;;;;;;;17.92;9.70;;;18.00;99.90;;;;;;4913789;29;20184;-82
2023/07/24 03:39:24;;;;;;;16.17;10.82;;;18.00;99.90;;;;;;4918424;29;20195;-87
2023/07/24 03:41:51;;;;;;;20.20;10.45;;;18.00;99.90;;;;;;4919784;29;20239;-88
2023/07/24 03:44:17;;;;;;;19.33;10.55;;;18.00;99.90;;;;;;4947713;29;20508;-88
2023/07/24 03:46:42;;;;;;;16.42;10.52;;;18.10;99.90;;;;;;4935363;29;20186;-85
2023/07/24 03:49:08;;;;;;;17.35;10.73;;;18.10;99.90;;;;;;4919532;29;20295;-85
2023/07/24 03:51:34;;;;;;;14.70;10.48;;;18.10;99.90;;;;;;4914393;29;20192;-84
2023/07/24 03:54:00;;;;;;;17.52;10.50;;;18.10;99.90;;;;;;4903106;29;20224;-85
2023/07/24 03:56:26;;;;;;;17.42;9.73;;;18.20;99.90;;;;;;4922362;29;20540;-84
2023/07/24 03:58:52;;;;;;;15.73;10.30;;;18.20;99.90;;;;;;4939632;29;20601;-85
2023/07/24 04:01:18;;;;;;;16.00;10.40;;;18.20;99.90;;;;;;4929213;29;20187;-90
2023/07/24 04:03:45;;;;;;;16.30;10.07;;;18.20;99.90;;;;;;4940888;29;20274;-89
2023/07/24 04:06:11;;;;;;;14.25;9.68;;;18.20;99.90;;;;;;4919911;29;20402;-88
2023/07/24 04:08:36;;;;;;;11.60;9.48;;;18.20;99.90;;;;;;4930323;29;20378;-82
2023/07/24 04:11:04;;;;;;;15.02;9.25;;;18.20;99.90;;;;;;4933646;29;20191;-89
2023/07/24 04:13:30;;;;;;;19.38;9.55;;;18.20;99.90;;;;;;4920989;29;20392;-88
2023/07/24 04:15:57;;;;;;;16.45;9.63;;;18.20;99.90;;;;;;4941086;29;20676;-89
2023/07/24 04:18:23;;;;;;;15.40;10.05;;;18.20;99.90;;;;;;4931221;29;20194;-90
2023/07/24 04:20:48;;;;;;;14.35;9.70;;;18.20;99.90;;;;;;4906081;29;20196;-87
2023/07/24 04:23:15;;;;;;;14.73;9.48;;;18.20;99.90;;;;;;4909448;29;20188;-88
2023/07/24 04:25:41;;;;;;;16.88;10.02;;;18.20;99.90;;;;;;4939915;29;20270;-89
2023/07/24 04:28:09;;;;;;;18.92;10.80;;;18.20;99.90;;;;;;4920339;29;20246;-87
2023/07/24 04:30:35;;;;;;;16.50;9.80;;;18.20;99.90;;;;;;4938106;29;20659;-88
2023/07/24 04:33:01;;;;;;;15.35;9.75;;;18.20;99.90;;;;;;4920992;29;20676;-88
2023/07/24 04:35:27;;;;;;;17.27;10.25;;;18.20;99.90;;;;;;4940802;29;20199;-87
2023/07/24 04:37:53;;;;;;;15.25;10.55;;;18.10;99.90;;;;;;4937241;29;20186;-87
2023/07/24 04:40:19;;;;;;;13.85;10.30;;;18.10;99.90;;;;;;4926877;29;20179;-87
2023/07/24 04:42:45;;;;;;;13.43;10.45;;;18.10;99.90;;;;;;4921134;29;20680;-86
2023/07/24 04:45:10;;;;;;;15.15;11.07;;;18.10;99.90;;;;;;4924501;29;20597;-90
2023/07/24 04:47:38;;;;;;;16.25;11.68;;;18.10;99.90;;;;;;4938303;29;20187;-86
2023/07/24 04:50:04;;;;;;;14.85;11.38;;;18.10;99.90;;;;;;4936868;29;20184;-90
2023/07/24 04:52:30;;;;;;;19.15;11.73;;;18.10;99.90;;;;;;4933437;29;20238;-88
2023/07/24 04:54:55;;;;;;;14.20;11.27;;;18.10;99.90;;;;;;4935160;29;20191;-87
2023/07/24 04:57:21;;;;;;;15.68;10.77;;;18.10;99.90;;;;;;4935883;29;20179;-88
2023/07/24 04:59:47;;;;;;;17.83;11.85;;;18.10;99.90;;;;;;4920239;29;20190;-88
2023/07/24 05:02:13;;;;;;;17.17;11.85;;;18.10;99.90;;;;;;4936434;29;20187;-87
2023/07/24 05:04:38;;;;;;;15.20;11.63;;;18.10;99.90;;;;;;4939128;28;20258;-86
2023/07/24 05:07:04;;;;;;;14.85;11.10;;;18.10;99.90;;;;;;4918457;29;20259;-86
2023/07/24 05:09:30;;;;;;;14.48;11.35;;;18.10;99.90;;;;;;4933596;29;20230;-86
2023/07/24 05:11:56;;;;;;;18.83;11.80;;;18.10;99.90;;;;;;4917704;29;20547;-86
2023/07/24 05:14:22;;;;;;;16.60;11.48;;;18.10;99.90;;;;;;4941948;29;20585;-86
2023/07/24 05:16:47;;;;;;;17.65;11.50;;;18.10;99.90;;;;;;4934505;29;20183;-86
2023/07/24 05:19:13;;;;;;;16.42;11.60;;;18.10;99.90;;;;;;4924907;29;20194;-87
2023/07/24 05:21:39;;;;;;;19.00;12.20;;;18.10;99.90;;;;;;4937097;29;20186;-88
2023/07/24 05:24:05;;;;;;;17.77;11.38;;;18.10;99.90;;;;;;4903078;29;20511;-86
2023/07/24 05:26:30;;;;;;;17.95;12.10;;;18.10;99.90;;;;;;4923084;29;20246;-86
2023/07/24 05:28:56;;;;;;;18.50;12.00;;;18.20;99.90;;;;;;4920496;29;20628;-86
2023/07/24 05:31:22;;;;;;;17.85;11.70;;;18.20;99.90;;;;;;4935109;29;20194;-87
2023/07/24 05:33:48;;;;;;;15.68;12.15;;;18.20;99.90;;;;;;4935176;29;20663;-87
2023/07/24 05:36:13;;;;;;;19.63;11.93;;;18.20;99.90;;;;;;4922472;29;20634;-87
2023/07/24 05:38:39;;;;;;;19.77;11.80;;;18.20;99.90;;;;;;4935665;29;20188;-87
2023/07/24 05:41:05;;;;;;;15.98;11.45;;;18.20;99.90;;;;;;4934267;29;20183;-86
2023/07/24 05:43:32;;;;;;;20.40;12.40;;;18.20;99.90;;;;;;4935387;29;21859;-87
2023/07/24 05:45:58;;;;;;;16.92;11.68;;;18.30;99.90;;;;;;4921639;29;20524;-87
2023/07/24 05:48:25;;;;;;;15.85;11.77;;;18.30;99.90;;;;;;4939198;29;20272;-86
2023/07/24 05:50:51;;;;;;;18.08;11.68;;;18.30;99.90;;;;;;4929370;29;20220;-88
2023/07/24 05:53:17;;;;;;;17.63;12.27;;;18.30;99.90;;;;;;4940964;29;20211;-87
2023/07/24 05:55:43;;;;;;;14.98;11.73;;;18.30;99.90;;;;;;4940528;29;20581;-86
2023/07/24 05:58:09;;;;;;;17.58;11.68;;;18.30;99.90;;;;;;4935182;29;20207;-87
2023/07/24 06:00:36;;;;;;;18.48;12.15;;;18.30;99.90;;;;;;4935021;29;20211;-86
2023/07/24 06:03:03;;;;;;;15.55;11.48;;;18.30;99.90;;;;;;4935451;29;20275;-90
2023/07/24 06:05:29;;;;;;;15.15;11.23;;;18.30;99.90;;;;;;4939861;29;20186;-87
2023/07/24 06:07:54;;;;;;;19.02;11.90;;;18.30;99.90;;;;;;4929706;29;20265;-85
2023/07/24 06:10:20;;;;;;;16.95;11.23;;;18.30;99.90;;;;;;4912046;29;20184;-86
2023/07/24 06:12:47;;;;;;;26.48;12.35;;;18.30;99.90;;;;;;4899035;29;20226;-84
2023/07/24 06:15:14;;;;;;;16.27;11.23;;;18.30;99.90;;;;;;4939964;29;20202;-86
2023/07/24 06:17:40;;;;;;;25.17;12.23;;;18.30;99.90;;;;;;4937969;29;20207;-88
2023/07/24 06:20:06;;;;;;;14.55;11.82;;;18.40;99.90;;;;;;4926638;29;20223;-89
2023/07/24 06:22:32;;;;;;;18.23;11.48;;;18.40;99.90;;;;;;4941542;29;20195;-88
2023/07/24 06:24:58;;;;;;;15.48;11.25;;;18.40;99.90;;;;;;4946802;29;20193;-90
2023/07/24 06:27:24;;;;;;;17.20;11.52;;;18.40;99.90;;;;;;4936363;29;20238;-87
2023/07/24 06:29:50;;;;;;;19.80;11.70;;;18.40;99.90;;;;;;4923563;29;20197;-89
2023/07/24 06:32:17;;;;;;;15.27;11.07;;;18.40;99.90;;;;;;4940550;29;20228;-91
2023/07/24 06:34:43;;;;;;;15.23;10.95;;;18.50;99.90;;;;;;4915942;29;20270;-89
2023/07/24 06:37:09;;;;;;;14.73;10.88;;;18.50;99.90;;;;;;4926327;29;20218;-87
2023/07/24 06:39:35;;;;;;;15.05;10.88;;;18.50;99.90;;;;;;4928412;29;20225;-87
2023/07/24 06:42:01;;;;;;;17.75;11.63;;;18.60;99.90;;;;;;4937699;29;20669;-88
2023/07/24 06:44:26;;;;;;;14.38;10.50;;;18.60;99.90;;;;;;4907494;29;20186;-89
2023/07/24 06:46:53;;;;;;;20.48;10.95;;;18.60;99.90;;;;;;4936129;29;20258;-89
2023/07/24 06:49:18;;;;;;;16.92;10.93;;;18.60;99.90;;;;;;4933534;29;20281;-91
2023/07/24 06:51:44;;;;;;;14.38;10.55;;;18.60;99.90;;;;;;4927694;29;20186;-87
2023/07/24 06:54:10;;;;;;;14.75;10.95;;;18.60;99.90;;;;;;4952876;28;20668;-89
2023/07/24 06:56:39;;;;;;;16.77;10.77;;;18.70;99.90;;;;;;4951874;28;20183;-89
2023/07/24 06:59:05;;;;;;;17.92;10.93;;;18.70;99.90;;;;;;4920072;29;20187;-89
2023/07/24 07:01:31;;;;;;;20.48;11.88;;;18.70;99.90;;;;;;4917218;29;20197;-90
2023/07/24 07:03:57;;;;;;;17.70;11.00;;;18.70;99.90;;;;;;4922738;29;20194;-90
2023/07/24 07:06:23;;;;;;;24.95;11.20;;;18.70;99.90;;;;;;4937377;29;20184;-87
2023/07/24 07:08:49;;;;;;;16.60;11.05;;;18.70;99.90;;;;;;4937188;29;20187;-89
2023/07/24 07:11:17;;;;;;;22.52;11.52;;;18.70;99.90;;;;;;4934940;29;20738;-87
2023/07/24 07:13:43;;;;;;;20.98;11.20;;;18.80;99.90;;;;;;4935908;29;20214;-87
2023/07/24 07:16:09;;;;;;;19.05;11.55;;;18.80;99.90;;;;;;4936140;29;20187;-88
2023/07/24 07:18:35;;;;;;;16.42;11.35;;;18.80;99.90;;;;;;4947175;28;20185;-87
2023/07/24 07:21:01;;;;;;;19.30;11.55;;;18.80;99.90;;;;;;4905339;29;20255;-89
2023/07/24 07:23:26;;;;;;;17.38;11.00;;;18.80;99.90;;;;;;4941595;29;20187;-90
2023/07/24 07:25:55;;;;;;;16.63;10.82;;;18.90;99.90;;;;;;4921258;29;20195;-87
2023/07/24 07:28:21;;;;;;;18.35;11.38;;;18.90;99.90;;;;;;4904302;29;20187;-87
2023/07/24 07:30:47;;;;;;;19.02;10.95;;;18.90;99.90;;;;;;4937165;29;20652;-89
2023/07/24 07:33:16;;;;;;;28.77;11.40;;;19.00;99.90;;;;;;4946223;28;20214;-86
2023/07/24 07:35:42;;;;;;;17.67;10.85;;;19.00;99.90;;;;;;4910374;29;20179;-88
2023/07/24 07:38:08;;;;;;;15.70;10.75;;;19.00;99.90;;;;;;4949658;28;20208;-87
2023/07/24 07:40:38;;;;;;;21.02;11.07;;;19.00;99.90;;;;;;4915018;29;20233;-88
2023/07/24 07:43:06;;;;;;;17.98;10.82;;;19.00;99.90;;;;;;4934207;29;20202;-88
2023/07/24 07:45:34;;;;;;;19.35;10.98;;;19.00;99.90;;;;;;4938308;28;20184;-87
2023/07/24 07:48:00;;;;;;;17.02;10.13;;;19.10;99.90;;;;;;4928480;29;20248;-87
2023/07/24 07:50:26;;;;;;;23.42;11.23;;;19.10;99.90;;;;;;4934279;29;20278;-86
2023/07/24 07:52:52;;;;;;;21.00;11.50;;;19.10;99.90;;;;;;4945667;28;20210;-86
2023/07/24 07:55:19;;;;;;;20.52;11.10;;;19.10;99.90;;;;;;4941004;29;20179;-86
2023/07/24 07:57:45;;;;;;;17.55;10.40;;;19.20;99.90;;;;;;4957063;28;20179;-87
2023/07/24 08:00:11;;;;;;;19.60;10.52;;;19.20;99.90;;;;;;4917398;29;20215;-86
2023/07/24 08:02:40;;;;;;;21.77;10.15;;;19.20;99.90;;;;;;4931810;29;20193;-85
2023/07/24 08:05:11;;;;;;;19.88;10.23;;;19.20;99.90;;;;;;4952808;28;20217;-85
2023/07/24 08:07:37;;;;;;;20.30;10.88;;;19.30;99.90;;;;;;4939016;29;20180;-86
2023/07/24 08:10:03;;;;;;;17.00;10.88;;;19.30;99.90;;;;;;4917748;29;20184;-86
2023/07/24 08:12:29;;;;;;;16.13;10.70;;;19.30;99.90;;;;;;4932386;29;20274;-86
2023/07/24 08:14:56;;;;;;;20.70;11.45;;;19.40;99.90;;;;;;4915559;29;20195;-85
2023/07/24 08:17:22;;;;;;;18.98;11.25;;;19.40;99.90;;;;;;4930477;29;20194;-86
2023/07/24 08:19:48;;;;;;;18.75;11.13;;;19.40;99.90;;;;;;4943018;29;20214;-85
2023/07/24 08:22:13;;;;;;;21.73;11.30;;;19.40;99.90;;;;;;4922047;29;20183;-85
2023/07/24 08:24:39;;;;;;;18.60;10.68;;;19.50;99.90;;;;;;4926791;29;20235;-86
2023/07/24 08:27:05;;;;;;;18.98;10.20;;;19.50;99.90;;;;;;4919925;29;20238;-86
2023/07/24 08:29:31;;;;;;;19.77;9.55;;;19.50;99.90;;;;;;4920568;29;20258;-86
2023/07/24 08:31:57;;;;;;;18.42;10.60;;;19.50;99.90;;;;;;4910185;29;20624;-87
2023/07/24 08:34:22;;;;;;;16.88;10.18;;;19.60;99.90;;;;;;4919345;29;20188;-86
2023/07/24 08:36:48;;;;;;;23.20;10.15;;;19.60;99.90;;;;;;4925082;29;20713;-89
2023/07/24 08:39:14;;;;;;;25.85;10.57;;;19.60;99.90;;;;;;4942201;29;20237;-85
2023/07/24 08:41:40;;;;;;;21.20;10.40;;;19.60;99.90;;;;;;4942938;28;20194;-86
2023/07/24 08:44:08;;;;;;;21.88;9.27;;;19.60;99.90;;;;;;4944624;29;20197;-86
2023/07/24 08:46:39;;;;;;;17.83;9.13;;;19.60;99.90;;;;;;4935761;29;20179;-86
2023/07/24 08:49:16;;;;;;;19.55;10.25;;;19.60;99.90;;;;;;4952261;28;20190;-85
2023/07/24 08:51:43;;;;;;;20.73;9.70;;;19.60;99.90;;;;;;4952173;28;20255;-85
2023/07/24 08:54:11;;;;;;;21.23;9.82;;;19.60;99.90;;;;;;4947874;28;20221;-85
2023/07/24 08:56:40;;;;;;;20.90;9.73;;;19.60;99.90;;;;;;4936364;29;20274;-86
2023/07/24 08:59:06;;;;;;;15.63;9.25;;;19.70;99.90;;;;;;4936064;29;20195;-85
2023/07/24 09:01:32;;;;;;;18.35;9.73;;;19.70;99.90;;;;;;4920492;29;20187;-87
2023/07/24 09:03:58;;;;;;;18.50;9.32;;;19.70;99.90;;;;;;4956168;28;20175;-88
2023/07/24 09:06:26;;;;;;;20.90;9.98;;;19.70;99.90;;;;;;4945003;29;20624;-87
2023/07/24 09:08:54;;;;;;;22.33;10.30;;;19.70;99.90;;;;;;4952226;28;20180;-88
2023/07/24 09:11:19;;;;;;;18.38;9.57;;;19.80;99.90;;;;;;4953590;29;20214;-87
2023/07/24 09:13:45;;;;;;;19.58;10.43;;;19.80;99.90;;;;;;4924607;29;20246;-87
2023/07/24 09:16:25;;;;;;;19.70;10.13;;;19.80;99.90;;;;;;4927970;29;20298;-86
2023/07/24 09:18:52;;;;;;;17.58;9.80;;;19.90;99.90;;;;;;4921274;29;20184;-87
2023/07/24 09:21:29;;;;;;;21.60;10.50;;;20.10;99.90;;;;;;4924381;29;20263;-87
2023/07/24 09:23:55;;;;;;;15.00;8.98;;;20.20;99.90;;;;;;4922799;29;20183;-86
2023/07/24 09:26:21;;;;;;;18.90;9.52;;;20.30;99.90;;;;;;4947328;29;20182;-87
2023/07/24 09:28:54;;;;;;;17.00;9.27;;;20.40;99.90;;;;;;4937764;29;20569;-85
2023/07/24 09:31:20;;;;;;;17.63;8.90;;;20.30;99.90;;;;;;4937139;29;20197;-87
2023/07/24 09:33:46;;;;;;;23.10;9.45;;;20.40;99.90;;;;;;4937852;29;20211;-86
2023/07/24 09:36:12;;;;;;;19.02;9.27;;;20.40;99.90;;;;;;4965074;28;20198;-87
2023/07/24 09:38:39;;;;;;;18.77;9.70;;;20.30;99.90;;;;;;4937370;29;20179;-87
2023/07/24 09:41:06;;;;;;;17.13;10.10;;;20.40;99.90;;;;;;4936721;29;20188;-87
2023/07/24 09:43:32;;;;;;;17.27;9.40;;;20.60;99.90;;;;;;4944255;29;20186;-88
2023/07/24 09:45:58;;;;;;;17.38;9.60;;;20.70;99.90;;;;;;4929495;29;20196;-87
2023/07/24 09:48:26;;;;;;;20.13;8.20;;;20.80;99.90;;;;;;4926774;29;20191;-87
2023/07/24 09:50:57;;;;;;;13.98;7.88;;;20.90;99.90;;;;;;4927835;29;20246;-87
2023/07/24 09:53:32;;;;;;;18.60;7.97;;;21.00;99.90;;;;;;4936626;29;20207;-87
2023/07/24 09:56:00;;;;;;;16.85;7.60;;;21.10;99.90;;;;;;4920872;29;20186;-88
2023/07/24 09:58:26;;;;;;;14.35;7.35;;;21.20;99.90;;;;;;4951789;29;20189;-88
2023/07/24 10:00:53;;;;;;;17.77;7.60;;;21.30;99.90;;;;;;4936535;29;20234;-87
2023/07/24 10:03:21;;;;;;;13.80;8.00;;;21.50;99.90;;;;;;4935101;29;20202;-87
2023/07/24 10:05:48;;;;;;;13.68;7.07;;;21.60;99.90;;;;;;4953666;28;20184;-87
2023/07/24 10:08:19;;;;;;;11.57;7.15;;;21.70;99.90;;;;;;4941522;29;20183;-87
2023/07/24 10:10:45;;;;;;;18.63;8.02;;;21.70;99.90;;;;;;4944617;29;20563;-89
2023/07/24 10:13:14;;;;;;;13.75;8.00;;;21.80;99.90;;;;;;4935597;29;20222;-88
2023/07/24 10:15:45;;;;;;;14.63;7.63;;;21.80;99.90;;;;;;4946597;29;20265;-87
2023/07/24 10:18:11;;;;;;;17.42;8.43;;;21.90;99.90;;;;;;4939358;29;20183;-88
2023/07/24 10:20:40;;;;;;;16.15;7.72;;;21.90;99.90;;;;;;4916540;29;20241;-85
2023/07/24 10:23:15;;;;;;;15.35;9.65;;;21.90;99.90;;;;;;4947009;28;20187;-85
2023/07/24 10:25:43;;;;;;;20.00;8.98;;;21.90;99.90;;;;;;4957643;28;20185;-85
2023/07/24 10:28:11;;;;;;;20.38;9.07;;;21.90;99.90;;;;;;4921561;29;20286;-85
2023/07/24 10:30:41;;;;;;;13.50;8.77;;;21.90;99.90;;;;;;4934937;29;20183;-86
2023/07/24 10:33:13;;;;;;;17.60;10.25;;;21.80;99.90;;;;;;4934838;29;20309;-86
2023/07/24 10:35:47;;;;;;;16.52;9.85;;;21.80;99.90;;;;;;4932791;29;20182;-86
2023/07/24 10:38:14;;;;;;;22.33;9.82;;;21.80;99.90;;;;;;4927387;29;20192;-86
2023/07/24 10:40:43;;;;;;;14.63;8.93;;;21.80;99.90;;;;;;4941525;29;20275;-88
2023/07/24 10:43:17;;;;;;;14.38;8.68;;;21.90;99.90;;;;;;4919929;29;20207;-86
2023/07/24 10:45:53;;;;;;;16.08;8.23;;;22.00;99.90;;;;;;4933264;29;20218;-87
2023/07/24 10:48:21;;;;;;;12.77;8.23;;;22.00;99.90;;;;;;4946701;28;20666;-87
2023/07/24 10:50:52;;;;;;;22.25;8.10;;;22.10;99.90;;;;;;4934513;29;20206;-86
2023/07/24 10:53:20;;;;;;;12.38;7.68;;;22.10;99.90;;;;;;4935760;29;20243;-86
2023/07/24 10:55:47;;;;;;;18.40;7.78;;;22.20;99.90;;;;;;4934836;29;20195;-86
2023/07/24 10:58:14;;;;;;;10.98;6.30;;;22.30;99.90;;;;;;4918027;29;20215;-86
2023/07/24 11:00:41;;;;;;;10.30;6.30;;;22.20;99.90;;;;;;4934195;29;20237;-86
2023/07/24 11:03:11;;;;;;;13.32;6.30;;;22.30;99.90;;;;;;4951180;29;20186;-90
2023/07/24 11:05:45;;;;;;;9.57;5.50;;;22.20;99.90;;;;;;4906223;29;20298;-86
2023/07/24 11:08:15;;;;;;;11.13;5.80;;;22.20;99.90;;;;;;4928234;29;20182;-87
2023/07/24 11:11:00;;;;;;;10.32;5.43;;;22.10;99.90;;;;;;4955600;29;20175;-86
2023/07/24 11:13:34;;;;;;;9.57;5.70;;;22.00;99.90;;;;;;4948684;29;20313;-86
2023/07/24 11:16:07;;;;;;;8.07;5.20;;;22.00;99.90;;;;;;4939644;29;20191;-86
2023/07/24 11:18:48;;;;;;;11.52;5.60;;;22.00;99.90;;;;;;4941239;29;20183;-87
2023/07/24 11:21:15;;;;;;;9.85;5.28;;;21.90;99.90;;;;;;4942823;29;20187;-87
2023/07/24 11:23:53;;;;;;;8.23;5.18;;;21.90;99.90;;;;;;4932997;29;20194;-86
2023/07/24 11:26:21;;;;;;;8.68;6.10;;;21.90;99.90;;;;;;4952423;29;20750;-86
2023/07/24 11:28:46;;;;;;;14.35;6.57;;;21.80;99.90;;;;;;4957122;29;20191;-86
2023/07/24 11:31:15;;;;;;;15.15;7.25;;;21.80;99.90;;;;;;4940994;29;20210;-85
2023/07/24 11:33:42;;;;;;;15.02;7.50;;;21.70;99.90;;;;;;4940969;28;20222;-84
2023/07/24 11:36:09;;;;;;;14.57;7.30;;;21.60;99.90;;;;;;4954683;28;20198;-87
2023/07/24 11:38:37;;;;;;;12.23;7.28;;;21.50;99.90;;;;;;4943550;29;20186;-86
2023/07/24 11:41:05;;;;;;;11.73;7.25;;;21.50;99.90;;;;;;4936889;29;20199;-88
2023/07/24 11:43:31;;;;;;;16.83;7.63;;;21.40;99.90;;;;;;4939142;29;20195;-87
2023/07/24 11:45:56;;;;;;;15.60;7.88;;;21.40;99.90;;;;;;4927232;29;20573;-86
2023/07/24 11:48:24;;;;;;;14.65;8.32;;;21.30;99.90;;;;;;4939543;29;20290;-86
2023/07/24 11:50:52;;;;;;;12.85;8.02;;;21.40;99.90;;;;;;4946426;29;20190;-85
2023/07/24 11:53:23;;;;;;;15.88;7.70;;;21.50;99.90;;;;;;4934833;29;20299;-91
2023/07/24 11:55:50;;;;;;;13.65;8.07;;;21.60;99.90;;;;;;4934775;29;20194;-87
2023/07/24 11:58:17;;;;;;;11.52;6.97;;;21.80;99.90;;;;;;4932304;29;20220;-87
2023/07/24 12:00:42;;;;;;;15.52;7.55;;;21.90;99.90;;;;;;4932342;29;20596;-88
2023/07/24 12:03:09;;;;;;;13.32;6.57;;;21.90;99.90;;;;;;4944077;29;20188;-89
2023/07/24 12:05:42;;;;;;;9.23;6.32;;;22.00;99.90;;;;;;4952566;28;20188;-89
2023/07/24 12:08:08;;;;;;;12.65;7.38;;;22.00;99.90;;;;;;4922540;29;20187;-86
2023/07/24 12:10:37;;;;;;;14.60;7.35;;;22.10;99.90;;;;;;4941544;29;20582;-86
2023/07/24 12:13:03;;;;;;;11.00;7.10;;;22.10;99.90;;;;;;4933861;29;20251;-86
2023/07/24 12:15:29;;;;;;;10.93;7.15;;;22.10;99.90;;;;;;4937359;29;20656;-86
2023/07/24 12:17:56;;;;;;;16.88;7.18;;;22.20;99.90;;;;;;4947291;29;20190;-86
2023/07/24 12:20:22;;;;;;;10.38;6.55;;;22.20;99.90;;;;;;4942101;28;20203;-86
2023/07/24 12:22:49;;;;;;;8.57;6.20;;;22.20;99.90;;;;;;4936844;29;20187;-86
2023/07/24 12:25:18;;;;;;;9.00;6.07;;;22.20;99.90;;;;;;4903503;29;20179;-86
2023/07/24 12:27:43;;;;;;;17.63;7.43;;;22.20;99.90;;;;;;4933773;29;20266;-87
2023/07/24 12:30:09;;;;;;;12.38;7.13;;;22.10;99.90;;;;;;4948756;29;20253;-86